sensor_id;sensor_type;location;lat;lon;timestamp;temperature;humidity
52103;DHT22;38101;53.126;6.878;2023-07-22T00:01:01;13.50;99.90
52103;DHT22;38101;53.126;6.878;2023-07-22T00:03:26;13.50;99.90
52103;DHT22;38101;53.126;6.878;2023-07-22T00:06:09;13.50;99.90
52103;DHT22;38101;53.126;6.878;2023-07-22T00:08:36;13.50;99.90
52103;DHT22;38101;53.126;6.878;2023-07-22T00:11:03;13.40;99.90
52103;DHT22;38101;53.126;6.878;2023-07-22T00:13:28;13.30;99.90
52103;DHT22;38101;53.126;6.878;2023-07-22T00:15:55;13.30;99.90
52103;DHT22;38101;53.126;6.878;2023-07-22T00:18:21;13.20;99.90
52103;DHT22;38101;53.126;6.878;2023-07-22T00:20:47;13.20;99.90
52103;DHT22;38101;53.126;6.878;2023-07-22T00:23:13;13.10;99.90
52103;DHT22;38101;53.126;6.878;2023-07-22T00:25:40;13.10;99.90
52103;DHT22;38101;53.126;6.878;2023-07-22T00:28:06;13.10;99.90
52103;DHT22;38101;53.126;6.878;2023-07-22T00:30:32;13.10;99.90
52103;DHT22;38101;53.126;6.878;2023-07-22T00:32:58;13.00;99.90
52103;DHT22;38101;53.126;6.878;2023-07-22T00:35:24;13.00;99.90
52103;DHT22;38101;53.126;6.878;2023-07-22T00:37:49;13.00;99.90
52103;DHT22;38101;53.126;6.878;2023-07-22T00:40:15;13.00;99.90
52103;DHT22;38101;53.126;6.878;2023-07-22T00:42:41;13.00;99.90
52103;DHT22;38101;53.126;6.878;2023-07-22T00:45:07;13.00;99.90
52103;DHT22;38101;53.126;6.878;2023-07-22T00:47:34;13.00;99.90
52103;DHT22;38101;53.126;6.878;2023-07-22T00:50:01;13.00;99.90
52103;DHT22;38101;53.126;6.878;2023-07-22T00:52:27;13.00;99.90
52103;DHT22;38101;53.126;6.878;2023-07-22T00:54:52;12.90;99.90
52103;DHT22;38101;53.126;6.878;2023-07-22T00:57:19;12.90;99.90
52103;DHT22;38101;53.126;6.878;2023-07-22T00:59:44;12.90;99.90
52103;DHT22;38101;53.126;6.878;2023-07-22T01:02:10;12.90;99.90
52103;DHT22;38101;53.126;6.878;2023-07-22T01:04:37;12.90;99.90
52103;DHT22;38101;53.126;6.878;2023-07-22T01:07:04;12.90;99.90
52103;DHT22;38101;53.126;6.878;2023-07-22T01:09:39;12.80;99.90
52103;DHT22;38101;53.126;6.878;2023-07-22T01:12:06;12.80;99.90
52103;DHT22;38101;53.126;6.878;2023-07-22T01:14:33;12.80;99.90
52103;DHT22;38101;53.126;6.878;2023-07-22T01:17:03;12.70;99.90
52103;DHT22;38101;53.126;6.878;2023-07-22T01:19:30;12.80;99.90
52103;DHT22;38101;53.126;6.878;2023-07-22T01:22:04;12.80;99.90
52103;DHT22;38101;53.126;6.878;2023-07-22T01:24:31;12.80;99.90
52103;DHT22;38101;53.126;6.878;2023-07-22T01:26:57;12.70;99.90
52103;DHT22;38101;53.126;6.878;2023-07-22T01:29:24;12.70;99.90
52103;DHT22;38101;53.126;6.878;2023-07-22T01:31:54;12.70;99.90
52103;DHT22;38101;53.126;6.878;2023-07-22T01:34:21;12.70;99.90
52103;DHT22;38101;53.126;6.878;2023-07-22T01:36:48;12.70;99.90
52103;DHT22;38101;53.126;6.878;2023-07-22T01:39:14;12.60;99.90
52103;DHT22;38101;53.126;6.878;2023-07-22T01:41:40;12.50;99.90
52103;DHT22;38101;53.126;6.878;2023-07-22T01:44:06;12.50;99.90
52103;DHT22;38101;53.126;6.878;2023-07-22T01:46:32;12.40;99.90
52103;DHT22;38101;53.126;6.878;2023-07-22T01:48:57;12.30;99.90
52103;DHT22;38101;53.126;6.878;2023-07-22T01:51:23;12.30;99.90
52103;DHT22;38101;53.126;6.878;2023-07-22T01:53:50;12.30;99.90
52103;DHT22;38101;53.126;6.878;2023-07-22T01:56:16;12.30;99.90
52103;DHT22;38101;53.126;6.878;2023-07-22T01:58:42;12.20;99.90
52103;DHT22;38101;53.126;6.878;2023-07-22T02:01:08;12.20;99.90
52103;DHT22;38101;53.126;6.878;2023-07-22T02:03:34;12.20;99.90
52103;DHT22;38101;53.126;6.878;2023-07-22T02:06:03;12.20;99.90
52103;DHT22;38101;53.126;6.878;2023-07-22T02:08:29;12.20;99.90
52103;DHT22;38101;53.126;6.878;2023-07-22T02:11:00;12.30;99.90
52103;DHT22;38101;53.126;6.878;2023-07-22T02:13:26;12.30;99.90
52103;DHT22;38101;53.126;6.878;2023-07-22T02:15:52;12.30;99.90
52103;DHT22;38101;53.126;6.878;2023-07-22T02:18:17;12.20;99.90
52103;DHT22;38101;53.126;6.878;2023-07-22T02:20:43;12.10;99.90
52103;DHT22;38101;53.126;6.878;2023-07-22T02:23:09;12.10;99.90
52103;DHT22;38101;53.126;6.878;2023-07-22T02:25:35;12.00;99.90
52103;DHT22;38101;53.126;6.878;2023-07-22T02:28:01;12.00;99.90
52103;DHT22;38101;53.126;6.878;2023-07-22T02:30:27;12.00;99.90
52103;DHT22;38101;53.126;6.878;2023-07-22T02:32:53;11.90;99.90
52103;DHT22;38101;53.126;6.878;2023-07-22T02:35:18;11.90;99.90
52103;DHT22;38101;53.126;6.878;2023-07-22T02:37:44;11.80;99.90
52103;DHT22;38101;53.126;6.878;2023-07-22T02:40:10;11.90;99.90
52103;DHT22;38101;53.126;6.878;2023-07-22T02:42:39;11.80;99.90
52103;DHT22;38101;53.126;6.878;2023-07-22T02:45:05;11.80;99.90
52103;DHT22;38101;53.126;6.878;2023-07-22T02:47:32;11.80;99.90
52103;DHT22;38101;53.126;6.878;2023-07-22T02:49:58;11.80;99.90
52103;DHT22;38101;53.126;6.878;2023-07-22T02:52:23;11.80;99.90
52103;DHT22;38101;53.126;6.878;2023-07-22T02:55:11;11.70;99.90
52103;DHT22;38101;53.126;6.878;2023-07-22T02:57:38;11.70;99.90
52103;DHT22;38101;53.126;6.878;2023-07-22T03:00:05;11.70;99.90
52103;DHT22;38101;53.126;6.878;2023-07-22T03:02:35;11.70;99.90
52103;DHT22;38101;53.126;6.878;2023-07-22T03:05:02;11.70;99.90
52103;DHT22;38101;53.126;6.878;2023-07-22T03:07:30;11.60;99.90
52103;DHT22;38101;53.126;6.878;2023-07-22T03:09:55;11.60;99.90
52103;DHT22;38101;53.126;6.878;2023-07-22T03:12:21;11.50;99.90
52103;DHT22;38101;53.126;6.878;2023-07-22T03:14:47;11.50;99.90
52103;DHT22;38101;53.126;6.878;2023-07-22T03:17:14;11.50;99.90
52103;DHT22;38101;53.126;6.878;2023-07-22T03:19:42;11.40;99.90
52103;DHT22;38101;53.126;6.878;2023-07-22T03:22:07;11.40;99.90
52103;DHT22;38101;53.126;6.878;2023-07-22T03:24:33;11.40;99.90
52103;DHT22;38101;53.126;6.878;2023-07-22T03:26:58;11.30;99.90
52103;DHT22;38101;53.126;6.878;2023-07-22T03:29:24;11.20;99.90
52103;DHT22;38101;53.126;6.878;2023-07-22T03:31:50;11.30;99.90
52103;DHT22;38101;53.126;6.878;2023-07-22T03:34:16;11.20;99.90
52103;DHT22;38101;53.126;6.878;2023-07-22T03:36:41;11.40;99.90
52103;DHT22;38101;53.126;6.878;2023-07-22T03:39:08;11.40;99.90
52103;DHT22;38101;53.126;6.878;2023-07-22T03:41:34;11.40;99.90
52103;DHT22;38101;53.126;6.878;2023-07-22T03:43:59;11.40;99.90
52103;DHT22;38101;53.126;6.878;2023-07-22T03:46:25;11.50;99.90
52103;DHT22;38101;53.126;6.878;2023-07-22T03:48:50;11.50;99.90
52103;DHT22;38101;53.126;6.878;2023-07-22T03:51:17;11.50;99.90
52103;DHT22;38101;53.126;6.878;2023-07-22T03:53:42;11.40;99.90
52103;DHT22;38101;53.126;6.878;2023-07-22T03:56:08;11.50;99.90
52103;DHT22;38101;53.126;6.878;2023-07-22T03:58:34;11.60;99.90
52103;DHT22;38101;53.126;6.878;2023-07-22T04:01:00;11.60;99.90
52103;DHT22;38101;53.126;6.878;2023-07-22T04:03:26;11.60;99.90
52103;DHT22;38101;53.126;6.878;2023-07-22T04:05:57;11.60;99.90
52103;DHT22;38101;53.126;6.878;2023-07-22T04:08:23;11.70;99.90
52103;DHT22;38101;53.126;6.878;2023-07-22T04:10:53;11.80;99.90
52103;DHT22;38101;53.126;6.878;2023-07-22T04:13:19;11.90;99.90
52103;DHT22;38101;53.126;6.878;2023-07-22T04:15:44;11.80;99.90
52103;DHT22;38101;53.126;6.878;2023-07-22T04:18:10;12.00;99.90
52103;DHT22;38101;53.126;6.878;2023-07-22T04:20:36;12.00;99.90
52103;DHT22;38101;53.126;6.878;2023-07-22T04:23:01;12.10;99.90
52103;DHT22;38101;53.126;6.878;2023-07-22T04:25:27;12.20;99.90
52103;DHT22;38101;53.126;6.878;2023-07-22T04:27:52;12.40;99.90
52103;DHT22;38101;53.126;6.878;2023-07-22T04:30:18;12.40;99.90
52103;DHT22;38101;53.126;6.878;2023-07-22T04:32:49;12.50;99.90
52103;DHT22;38101;53.126;6.878;2023-07-22T04:35:18;12.50;99.90
52103;DHT22;38101;53.126;6.878;2023-07-22T04:37:44;12.60;99.90
52103;DHT22;38101;53.126;6.878;2023-07-22T04:40:13;12.70;99.90
52103;DHT22;38101;53.126;6.878;2023-07-22T04:42:44;12.70;99.90
52103;DHT22;38101;53.126;6.878;2023-07-22T04:45:10;12.80;99.90
52103;DHT22;38101;53.126;6.878;2023-07-22T04:47:39;12.90;99.90
52103;DHT22;38101;53.126;6.878;2023-07-22T04:50:07;12.90;99.90
52103;DHT22;38101;53.126;6.878;2023-07-22T04:52:35;12.90;99.90
52103;DHT22;38101;53.126;6.878;2023-07-22T04:55:02;13.00;99.90
52103;DHT22;38101;53.126;6.878;2023-07-22T04:57:37;13.00;99.90
52103;DHT22;38101;53.126;6.878;2023-07-22T05:00:04;13.00;99.90
52103;DHT22;38101;53.126;6.878;2023-07-22T05:02:30;13.10;99.90
52103;DHT22;38101;53.126;6.878;2023-07-22T05:04:56;13.10;99.90
52103;DHT22;38101;53.126;6.878;2023-07-22T05:07:22;13.10;99.90
52103;DHT22;38101;53.126;6.878;2023-07-22T05:09:48;13.20;99.90
52103;DHT22;38101;53.126;6.878;2023-07-22T05:12:14;13.20;99.90
52103;DHT22;38101;53.126;6.878;2023-07-22T05:14:40;13.20;99.90
52103;DHT22;38101;53.126;6.878;2023-07-22T05:17:05;13.30;99.90
52103;DHT22;38101;53.126;6.878;2023-07-22T05:19:31;13.30;99.90
52103;DHT22;38101;53.126;6.878;2023-07-22T05:21:57;13.40;99.90
52103;DHT22;38101;53.126;6.878;2023-07-22T05:24:22;13.40;99.90
52103;DHT22;38101;53.126;6.878;2023-07-22T05:26:48;13.40;99.90
52103;DHT22;38101;53.126;6.878;2023-07-22T05:29:14;13.40;99.90
52103;DHT22;38101;53.126;6.878;2023-07-22T05:31:40;13.50;99.90
52103;DHT22;38101;53.126;6.878;2023-07-22T05:34:06;13.60;99.90
52103;DHT22;38101;53.126;6.878;2023-07-22T05:36:31;13.60;99.90
52103;DHT22;38101;53.126;6.878;2023-07-22T05:38:57;13.60;99.90
52103;DHT22;38101;53.126;6.878;2023-07-22T05:41:23;13.70;99.90
52103;DHT22;38101;53.126;6.878;2023-07-22T05:43:48;13.70;99.90
52103;DHT22;38101;53.126;6.878;2023-07-22T05:46:14;13.80;99.90
52103;DHT22;38101;53.126;6.878;2023-07-22T05:48:40;13.80;99.90
52103;DHT22;38101;53.126;6.878;2023-07-22T05:51:05;13.80;99.90
52103;DHT22;38101;53.126;6.878;2023-07-22T05:53:32;13.80;99.90
52103;DHT22;38101;53.126;6.878;2023-07-22T05:55:58;13.90;99.90
52103;DHT22;38101;53.126;6.878;2023-07-22T05:58:24;13.90;99.90
52103;DHT22;38101;53.126;6.878;2023-07-22T06:00:50;14.00;99.90
52103;DHT22;38101;53.126;6.878;2023-07-22T06:03:17;14.00;99.90
52103;DHT22;38101;53.126;6.878;2023-07-22T06:05:43;14.10;99.90
52103;DHT22;38101;53.126;6.878;2023-07-22T06:08:09;14.10;99.90
52103;DHT22;38101;53.126;6.878;2023-07-22T06:10:34;14.20;99.90
52103;DHT22;38101;53.126;6.878;2023-07-22T06:13:03;14.30;99.90
52103;DHT22;38101;53.126;6.878;2023-07-22T06:15:29;14.40;99.90
52103;DHT22;38101;53.126;6.878;2023-07-22T06:17:55;14.40;99.90
52103;DHT22;38101;53.126;6.878;2023-07-22T06:20:21;14.50;99.90
52103;DHT22;38101;53.126;6.878;2023-07-22T06:22:47;14.50;99.90
52103;DHT22;38101;53.126;6.878;2023-07-22T06:25:12;14.60;99.90
52103;DHT22;38101;53.126;6.878;2023-07-22T06:27:38;14.60;99.90
52103;DHT22;38101;53.126;6.878;2023-07-22T06:30:04;14.70;99.90
52103;DHT22;38101;53.126;6.878;2023-07-22T06:32:30;14.80;99.90
52103;DHT22;38101;53.126;6.878;2023-07-22T06:34:57;14.80;99.90
52103;DHT22;38101;53.126;6.878;2023-07-22T06:37:23;14.90;99.90
52103;DHT22;38101;53.126;6.878;2023-07-22T06:39:49;15.00;99.90
52103;DHT22;38101;53.126;6.878;2023-07-22T06:42:15;15.10;99.90
52103;DHT22;38101;53.126;6.878;2023-07-22T06:44:42;15.20;99.90
52103;DHT22;38101;53.126;6.878;2023-07-22T06:47:08;15.20;99.90
52103;DHT22;38101;53.126;6.878;2023-07-22T06:49:34;15.30;99.90
52103;DHT22;38101;53.126;6.878;2023-07-22T06:51:59;15.30;99.90
52103;DHT22;38101;53.126;6.878;2023-07-22T06:54:26;15.40;99.90
52103;DHT22;38101;53.126;6.878;2023-07-22T06:56:52;15.40;99.90
52103;DHT22;38101;53.126;6.878;2023-07-22T06:59:18;15.50;99.90
52103;DHT22;38101;53.126;6.878;2023-07-22T07:01:44;15.50;99.90
52103;DHT22;38101;53.126;6.878;2023-07-22T07:04:09;15.60;99.90
52103;DHT22;38101;53.126;6.878;2023-07-22T07:06:36;15.70;99.90
52103;DHT22;38101;53.126;6.878;2023-07-22T07:09:03;15.70;99.90
52103;DHT22;38101;53.126;6.878;2023-07-22T07:11:31;15.70;99.90
52103;DHT22;38101;53.126;6.878;2023-07-22T07:13:57;15.80;99.90
52103;DHT22;38101;53.126;6.878;2023-07-22T07:16:28;15.90;99.90
52103;DHT22;38101;53.126;6.878;2023-07-22T07:18:54;16.00;99.90
52103;DHT22;38101;53.126;6.878;2023-07-22T07:21:21;16.10;99.90
52103;DHT22;38101;53.126;6.878;2023-07-22T07:23:48;16.20;99.90
52103;DHT22;38101;53.126;6.878;2023-07-22T07:26:14;16.30;99.90
52103;DHT22;38101;53.126;6.878;2023-07-22T07:28:40;16.30;99.90
52103;DHT22;38101;53.126;6.878;2023-07-22T07:31:06;16.40;99.90
52103;DHT22;38101;53.126;6.878;2023-07-22T07:33:32;16.40;99.90
52103;DHT22;38101;53.126;6.878;2023-07-22T07:35:58;16.50;99.90
52103;DHT22;38101;53.126;6.878;2023-07-22T07:38:23;16.50;99.90
52103;DHT22;38101;53.126;6.878;2023-07-22T07:41:05;16.60;99.90
52103;DHT22;38101;53.126;6.878;2023-07-22T07:43:37;16.60;99.90
52103;DHT22;38101;53.126;6.878;2023-07-22T07:46:23;16.60;99.90
52103;DHT22;38101;53.126;6.878;2023-07-22T07:48:51;16.60;99.90
52103;DHT22;38101;53.126;6.878;2023-07-22T07:51:18;16.60;99.90
52103;DHT22;38101;53.126;6.878;2023-07-22T07:53:45;16.60;99.90
52103;DHT22;38101;53.126;6.878;2023-07-22T07:56:13;16.60;99.90
52103;DHT22;38101;53.126;6.878;2023-07-22T07:58:39;16.70;99.90
52103;DHT22;38101;53.126;6.878;2023-07-22T08:01:06;16.80;99.90
52103;DHT22;38101;53.126;6.878;2023-07-22T08:03:33;16.80;99.90
52103;DHT22;38101;53.126;6.878;2023-07-22T08:05:59;16.90;99.90
52103;DHT22;38101;53.126;6.878;2023-07-22T08:08:24;17.00;99.90
52103;DHT22;38101;53.126;6.878;2023-07-22T08:11:10;17.00;99.90
52103;DHT22;38101;53.126;6.878;2023-07-22T08:13:37;17.10;99.90
52103;DHT22;38101;53.126;6.878;2023-07-22T08:16:04;17.20;99.90
52103;DHT22;38101;53.126;6.878;2023-07-22T08:18:31;17.20;99.90
52103;DHT22;38101;53.126;6.878;2023-07-22T08:20:57;17.30;99.90
52103;DHT22;38101;53.126;6.878;2023-07-22T08:23:23;17.40;99.90
52103;DHT22;38101;53.126;6.878;2023-07-22T08:25:49;17.50;99.90
52103;DHT22;38101;53.126;6.878;2023-07-22T08:28:15;17.60;99.90
52103;DHT22;38101;53.126;6.878;2023-07-22T08:30:41;17.70;99.90
52103;DHT22;38101;53.126;6.878;2023-07-22T08:33:11;17.80;99.90
52103;DHT22;38101;53.126;6.878;2023-07-22T08:35:38;17.80;99.90
52103;DHT22;38101;53.126;6.878;2023-07-22T08:38:05;18.00;99.90
52103;DHT22;38101;53.126;6.878;2023-07-22T08:40:39;18.10;99.90
52103;DHT22;38101;53.126;6.878;2023-07-22T08:43:06;18.20;99.90
52103;DHT22;38101;53.126;6.878;2023-07-22T08:45:34;18.30;99.90
52103;DHT22;38101;53.126;6.878;2023-07-22T08:48:06;18.40;99.90
52103;DHT22;38101;53.126;6.878;2023-07-22T08:50:49;18.40;99.90
52103;DHT22;38101;53.126;6.878;2023-07-22T08:53:16;18.50;99.90
52103;DHT22;38101;53.126;6.878;2023-07-22T08:55:42;18.50;99.90
52103;DHT22;38101;53.126;6.878;2023-07-22T08:58:09;18.50;99.90
52103;DHT22;38101;53.126;6.878;2023-07-22T09:00:36;18.50;99.90
52103;DHT22;38101;53.126;6.878;2023-07-22T09:03:02;18.50;99.90
52103;DHT22;38101;53.126;6.878;2023-07-22T09:05:28;18.60;99.90
52103;DHT22;38101;53.126;6.878;2023-07-22T09:07:55;18.60;99.90
52103;DHT22;38101;53.126;6.878;2023-07-22T09:10:22;18.60;99.90
52103;DHT22;38101;53.126;6.878;2023-07-22T09:12:51;18.60;99.90
52103;DHT22;38101;53.126;6.878;2023-07-22T09:15:17;18.60;99.90
52103;DHT22;38101;53.126;6.878;2023-07-22T09:17:44;18.60;99.90
52103;DHT22;38101;53.126;6.878;2023-07-22T09:20:12;18.60;99.90
52103;DHT22;38101;53.126;6.878;2023-07-22T09:22:43;18.50;99.90
52103;DHT22;38101;53.126;6.878;2023-07-22T09:25:20;18.60;99.90
52103;DHT22;38101;53.126;6.878;2023-07-22T09:27:51;18.60;99.90
52103;DHT22;38101;53.126;6.878;2023-07-22T09:30:32;18.50;99.90
52103;DHT22;38101;53.126;6.878;2023-07-22T09:33:02;18.50;99.90
52103;DHT22;38101;53.126;6.878;2023-07-22T09:35:43;18.40;99.90
52103;DHT22;38101;53.126;6.878;2023-07-22T09:38:09;18.40;99.90
52103;DHT22;38101;53.126;6.878;2023-07-22T09:40:35;18.30;99.90
52103;DHT22;38101;53.126;6.878;2023-07-22T09:43:01;18.30;99.90
52103;DHT22;38101;53.126;6.878;2023-07-22T09:45:30;18.20;99.90
52103;DHT22;38101;53.126;6.878;2023-07-22T09:47:57;18.20;99.90
52103;DHT22;38101;53.126;6.878;2023-07-22T09:50:25;18.10;99.90
52103;DHT22;38101;53.126;6.878;2023-07-22T09:52:53;18.10;99.90
52103;DHT22;38101;53.126;6.878;2023-07-22T09:55:24;18.00;99.90
52103;DHT22;38101;53.126;6.878;2023-07-22T09:57:53;18.00;99.90
52103;DHT22;38101;53.126;6.878;2023-07-22T10:00:20;18.00;99.90
52103;DHT22;38101;53.126;6.878;2023-07-22T10:02:49;18.00;99.90
52103;DHT22;38101;53.126;6.878;2023-07-22T10:05:19;18.10;99.90
52103;DHT22;38101;53.126;6.878;2023-07-22T10:07:56;18.10;99.90
52103;DHT22;38101;53.126;6.878;2023-07-22T10:10:30;18.10;99.90
52103;DHT22;38101;53.126;6.878;2023-07-22T10:12:56;18.10;99.90
52103;DHT22;38101;53.126;6.878;2023-07-22T10:15:25;18.20;99.90
52103;DHT22;38101;53.126;6.878;2023-07-22T10:17:51;18.20;99.90
52103;DHT22;38101;53.126;6.878;2023-07-22T10:20:19;18.20;99.90
52103;DHT22;38101;53.126;6.878;2023-07-22T10:22:46;18.30;99.90
52103;DHT22;38101;53.126;6.878;2023-07-22T10:25:15;18.20;99.90
52103;DHT22;38101;53.126;6.878;2023-07-22T10:27:41;18.20;99.90
52103;DHT22;38101;53.126;6.878;2023-07-22T10:30:11;18.20;99.90
52103;DHT22;38101;53.126;6.878;2023-07-22T10:32:39;18.20;99.90
52103;DHT22;38101;53.126;6.878;2023-07-22T10:35:11;18.20;99.90
52103;DHT22;38101;53.126;6.878;2023-07-22T10:37:38;18.20;99.90
52103;DHT22;38101;53.126;6.878;2023-07-22T10:40:26;18.20;99.90
52103;DHT22;38101;53.126;6.878;2023-07-22T10:43:05;18.20;99.90
52103;DHT22;38101;53.126;6.878;2023-07-22T10:45:40;18.20;99.90
52103;DHT22;38101;53.126;6.878;2023-07-22T10:50:43;18.20;99.90
52103;DHT22;38101;53.126;6.878;2023-07-22T10:53:10;18.20;99.90
52103;DHT22;38101;53.126;6.878;2023-07-22T10:56:15;18.20;99.90
52103;DHT22;38101;53.126;6.878;2023-07-22T11:07:03;18.10;99.90
52103;DHT22;38101;53.126;6.878;2023-07-22T11:12:00;18.00;99.90
52103;DHT22;38101;53.126;6.878;2023-07-22T11:14:30;18.00;99.90
52103;DHT22;38101;53.126;6.878;2023-07-22T11:16:58;17.90;99.90
52103;DHT22;38101;53.126;6.878;2023-07-22T11:19:24;17.90;99.90
52103;DHT22;38101;53.126;6.878;2023-07-22T11:21:51;17.80;99.90
52103;DHT22;38101;53.126;6.878;2023-07-22T11:24:18;17.80;99.90
52103;DHT22;38101;53.126;6.878;2023-07-22T11:26:47;17.90;99.90
52103;DHT22;38101;53.126;6.878;2023-07-22T11:29:14;17.80;99.90
52103;DHT22;38101;53.126;6.878;2023-07-22T11:31:42;17.80;99.90
52103;DHT22;38101;53.126;6.878;2023-07-22T11:34:16;17.80;99.90
52103;DHT22;38101;53.126;6.878;2023-07-22T11:36:42;17.80;99.90
52103;DHT22;38101;53.126;6.878;2023-07-22T11:39:13;17.80;99.90
52103;DHT22;38101;53.126;6.878;2023-07-22T11:41:39;17.80;99.90
52103;DHT22;38101;53.126;6.878;2023-07-22T11:44:10;17.70;99.90
52103;DHT22;38101;53.126;6.878;2023-07-22T11:49:31;17.70;99.90
52103;DHT22;38101;53.126;6.878;2023-07-22T11:52:03;17.80;99.90
52103;DHT22;38101;53.126;6.878;2023-07-22T11:54:30;17.70;99.90
52103;DHT22;38101;53.126;6.878;2023-07-22T11:56:56;17.70;99.90
52103;DHT22;38101;53.126;6.878;2023-07-22T11:59:40;17.60;99.90
52103;DHT22;38101;53.126;6.878;2023-07-22T12:02:16;17.70;99.90
52103;DHT22;38101;53.126;6.878;2023-07-22T12:04:43;17.60;99.90
52103;DHT22;38101;53.126;6.878;2023-07-22T12:07:31;17.50;99.90
52103;DHT22;38101;53.126;6.878;2023-07-22T12:09:59;17.50;99.90
52103;DHT22;38101;53.126;6.878;2023-07-22T12:12:35;17.50;99.90
52103;DHT22;38101;53.126;6.878;2023-07-22T12:15:12;17.40;99.90
52103;DHT22;38101;53.126;6.878;2023-07-22T12:18:00;17.40;99.90
52103;DHT22;38101;53.126;6.878;2023-07-22T12:20:27;17.40;99.90
52103;DHT22;38101;53.126;6.878;2023-07-22T12:22:54;17.40;99.90
52103;DHT22;38101;53.126;6.878;2023-07-22T12:25:20;17.40;99.90
52103;DHT22;38101;53.126;6.878;2023-07-22T12:27:45;17.40;99.90
52103;DHT22;38101;53.126;6.878;2023-07-22T12:30:11;17.50;99.90
52103;DHT22;38101;53.126;6.878;2023-07-22T12:32:38;17.50;99.90
52103;DHT22;38101;53.126;6.878;2023-07-22T12:35:04;17.60;99.90
52103;DHT22;38101;53.126;6.878;2023-07-22T12:37:30;17.70;99.90
52103;DHT22;38101;53.126;6.878;2023-07-22T12:39:56;17.70;99.90
52103;DHT22;38101;53.126;6.878;2023-07-22T12:42:22;17.70;99.90
52103;DHT22;38101;53.126;6.878;2023-07-22T12:44:48;17.70;99.90
52103;DHT22;38101;53.126;6.878;2023-07-22T12:47:13;17.80;99.90
52103;DHT22;38101;53.126;6.878;2023-07-22T12:49:39;17.80;99.90
52103;DHT22;38101;53.126;6.878;2023-07-22T12:52:05;17.80;99.90
52103;DHT22;38101;53.126;6.878;2023-07-22T12:54:35;17.80;99.90
52103;DHT22;38101;53.126;6.878;2023-07-22T12:57:01;17.80;99.90
52103;DHT22;38101;53.126;6.878;2023-07-22T12:59:27;17.70;99.90
52103;DHT22;38101;53.126;6.878;2023-07-22T13:01:53;17.80;99.90
52103;DHT22;38101;53.126;6.878;2023-07-22T13:04:19;17.80;99.90
52103;DHT22;38101;53.126;6.878;2023-07-22T13:06:45;17.80;99.90
52103;DHT22;38101;53.126;6.878;2023-07-22T13:09:10;17.80;99.90
52103;DHT22;38101;53.126;6.878;2023-07-22T13:11:36;17.80;99.90
52103;DHT22;38101;53.126;6.878;2023-07-22T13:14:02;17.80;99.90
52103;DHT22;38101;53.126;6.878;2023-07-22T13:16:28;17.80;99.90
52103;DHT22;38101;53.126;6.878;2023-07-22T13:18:54;17.80;99.90
52103;DHT22;38101;53.126;6.878;2023-07-22T13:21:19;17.80;99.90
52103;DHT22;38101;53.126;6.878;2023-07-22T13:23:45;17.90;99.90
52103;DHT22;38101;53.126;6.878;2023-07-22T13:26:11;17.80;99.90
52103;DHT22;38101;53.126;6.878;2023-07-22T13:28:36;17.80;99.90
52103;DHT22;38101;53.126;6.878;2023-07-22T13:31:02;17.80;99.90
52103;DHT22;38101;53.126;6.878;2023-07-22T13:33:27;17.80;99.90
52103;DHT22;38101;53.126;6.878;2023-07-22T13:35:53;17.80;99.90
52103;DHT22;38101;53.126;6.878;2023-07-22T13:38:19;17.80;99.90
52103;DHT22;38101;53.126;6.878;2023-07-22T13:40:45;17.70;99.90
52103;DHT22;38101;53.126;6.878;2023-07-22T13:43:11;17.70;99.90
52103;DHT22;38101;53.126;6.878;2023-07-22T13:45:37;17.70;99.90
52103;DHT22;38101;53.126;6.878;2023-07-22T13:48:03;17.60;99.90
52103;DHT22;38101;53.126;6.878;2023-07-22T13:50:29;17.60;99.90
52103;DHT22;38101;53.126;6.878;2023-07-22T13:52:54;17.60;99.90
52103;DHT22;38101;53.126;6.878;2023-07-22T13:55:20;17.60;99.90
52103;DHT22;38101;53.126;6.878;2023-07-22T13:57:46;17.60;99.90
52103;DHT22;38101;53.126;6.878;2023-07-22T14:00:11;17.60;99.90
52103;DHT22;38101;53.126;6.878;2023-07-22T14:02:38;17.60;99.90
52103;DHT22;38101;53.126;6.878;2023-07-22T14:05:04;17.60;99.90
52103;DHT22;38101;53.126;6.878;2023-07-22T14:07:30;17.50;99.90
52103;DHT22;38101;53.126;6.878;2023-07-22T14:09:56;17.50;99.90
52103;DHT22;38101;53.126;6.878;2023-07-22T14:12:21;17.60;99.90
52103;DHT22;38101;53.126;6.878;2023-07-22T14:14:47;17.60;99.90
52103;DHT22;38101;53.126;6.878;2023-07-22T14:17:13;17.70;99.90
52103;DHT22;38101;53.126;6.878;2023-07-22T14:19:38;17.80;99.90
52103;DHT22;38101;53.126;6.878;2023-07-22T14:22:04;17.80;99.90
52103;DHT22;38101;53.126;6.878;2023-07-22T14:24:30;17.90;99.90
52103;DHT22;38101;53.126;6.878;2023-07-22T14:26:56;18.00;99.90
52103;DHT22;38101;53.126;6.878;2023-07-22T14:29:21;18.00;99.90
52103;DHT22;38101;53.126;6.878;2023-07-22T14:31:47;18.10;99.90
52103;DHT22;38101;53.126;6.878;2023-07-22T14:34:13;18.10;99.90
52103;DHT22;38101;53.126;6.878;2023-07-22T14:36:39;18.20;99.90
52103;DHT22;38101;53.126;6.878;2023-07-22T14:39:04;18.20;99.90
52103;DHT22;38101;53.126;6.878;2023-07-22T14:41:30;18.20;99.90
52103;DHT22;38101;53.126;6.878;2023-07-22T14:43:56;18.20;99.90
52103;DHT22;38101;53.126;6.878;2023-07-22T14:46:22;18.20;99.90
52103;DHT22;38101;53.126;6.878;2023-07-22T14:48:48;18.20;99.90
52103;DHT22;38101;53.126;6.878;2023-07-22T14:51:14;18.20;99.90
52103;DHT22;38101;53.126;6.878;2023-07-22T14:53:39;18.10;99.90
52103;DHT22;38101;53.126;6.878;2023-07-22T14:56:05;18.10;99.90
52103;DHT22;38101;53.126;6.878;2023-07-22T14:58:33;18.10;99.90
52103;DHT22;38101;53.126;6.878;2023-07-22T15:00:59;18.10;99.90
52103;DHT22;38101;53.126;6.878;2023-07-22T15:03:25;18.00;99.90
52103;DHT22;38101;53.126;6.878;2023-07-22T15:05:51;18.00;99.90
52103;DHT22;38101;53.126;6.878;2023-07-22T15:08:16;18.00;99.90
52103;DHT22;38101;53.126;6.878;2023-07-22T15:10:42;18.00;99.90
52103;DHT22;38101;53.126;6.878;2023-07-22T15:13:08;18.00;99.90
52103;DHT22;38101;53.126;6.878;2023-07-22T15:15:33;18.10;99.90
52103;DHT22;38101;53.126;6.878;2023-07-22T15:17:59;18.10;99.90
52103;DHT22;38101;53.126;6.878;2023-07-22T15:20:25;18.10;99.90
52103;DHT22;38101;53.126;6.878;2023-07-22T15:22:50;18.10;99.90
52103;DHT22;38101;53.126;6.878;2023-07-22T15:25:16;18.00;99.90
52103;DHT22;38101;53.126;6.878;2023-07-22T15:27:42;18.10;99.90
52103;DHT22;38101;53.126;6.878;2023-07-22T15:30:09;18.10;99.90
52103;DHT22;38101;53.126;6.878;2023-07-22T15:32:35;18.10;99.90
52103;DHT22;38101;53.126;6.878;2023-07-22T15:35:01;18.10;99.90
52103;DHT22;38101;53.126;6.878;2023-07-22T15:37:27;18.10;99.90
52103;DHT22;38101;53.126;6.878;2023-07-22T15:39:52;18.10;99.90
52103;DHT22;38101;53.126;6.878;2023-07-22T15:42:18;18.10;99.90
52103;DHT22;38101;53.126;6.878;2023-07-22T15:44:44;18.10;99.90
52103;DHT22;38101;53.126;6.878;2023-07-22T15:47:09;18.10;99.90